Pagrindinis puslapis
METAR-TAF:

METAR-TAF

Oro uostai :

Kajanis, Suomija

platuma: 64-17N, ilguma: 027-41E, Aukštis: 143 m

Dabartinis oras

Ataskaita buvo paskelbta 31 minutes, ne 11:50 UTC
Vėjas 11 kt iš Vakarų/Šiaurės Vakarų
Temperatūra 17°C
Drėgmė 63%
Slėgis 1017 hPa
Matomumas 10 km arba daugiau
nėra debesų žemiau 1500 m ir nėra kamuolinių lietaus debesų

METAR: EFKI 221150Z AUTO 29011KT CAVOK 17/10 Q1017

Laikas: 15:21 (12:21 UTC)

Prognozė

Ataskaita buvo paskelbta 56 minutes, ne 11:25 UTC
Prognozė galioja nuo 22 metu 12 UTC su 22 metu 21 UTC
Vėjas 13 kt iš Vakarų
Matomumas 10 km arba daugiau
Išsisklaidę debesys ne aukštis 3000 ft
Laikinai
nuo 22 metu 12 UTC su 22 metu 15 UTC
Išsisklaidę debesys ne aukštis 3000 ft, Liūtiniai kamuoliniai debesys.

TAF: EFKI 221125Z 2212/2221 28013KT 9999 SCT030 TEMPO 2212/2215 SCT030CB

Orai ataskaitas ir orų prognozės (METAR, TAF).

turimą stotys yra geltonos ir raudonos taškus žemėlapyje.

Perkelti pele per norėdami pamatyti stoties vardą.

Tada spustelėkite, norėdami matyti oro stebėjimo ir prognozės.

Norėdami pakeisti žemėlapį: spustelėkite ant žalios mygtukų su juodo kryžiaus žemyn,; žalią mygtuką su brūkšneliu, jei norite nutolinti; arba žalių rodyklių gretimoms žemėlapius.


METAR-TAF: